Time;durP1;ratioP1;P1;durP2;ratioP2;P2;SDS_P1;SDS_P2;PMS_P1;PMS_P2;Temp;Humidity;BMP_temperature;BMP_pressure;BME280_temperature;BME280_humidity;BME280_pressure;Samples;Min_cycle;Max_cycle;Signal;HPM_P1;HPM_P2
2022/05/20 00:01:51;;;;;;;42.38;32.75;;;16.00;99.90;;;;;;5075360;28;20051;-76
2022/05/20 00:04:16;;;;;;;36.28;29.63;;;15.80;99.90;;;;;;5089595;28;20052;-76
2022/05/20 00:06:43;;;;;;;39.28;30.98;;;15.70;99.90;;;;;;5095430;28;20040;-75
2022/05/20 00:09:08;;;;;;;34.22;29.63;;;15.70;99.90;;;;;;5093891;28;20028;-76
2022/05/20 00:11:35;;;;;;;40.05;31.20;;;15.80;99.90;;;;;;5095490;28;20096;-76
2022/05/20 00:14:01;;;;;;;35.20;29.92;;;15.90;99.90;;;;;;5095357;28;20464;-76
2022/05/20 00:16:29;;;;;;;39.17;27.80;;;15.90;99.90;;;;;;5094207;28;20095;-75
2022/05/20 00:18:55;;;;;;;36.00;28.77;;;15.70;99.90;;;;;;5095182;28;20379;-75
2022/05/20 00:21:21;;;;;;;31.77;27.08;;;15.70;99.90;;;;;;5095326;28;20384;-75
2022/05/20 00:23:47;;;;;;;37.50;29.85;;;15.60;99.90;;;;;;5094945;28;20077;-75
2022/05/20 00:26:13;;;;;;;35.10;28.55;;;15.50;99.90;;;;;;5095325;28;20028;-76
2022/05/20 00:28:40;;;;;;;37.53;28.50;;;15.40;99.90;;;;;;5094982;28;20400;-76
2022/05/20 00:31:09;;;;;;;41.05;30.30;;;15.40;99.90;;;;;;5090123;28;20043;-76
2022/05/20 00:33:37;;;;;;;42.67;30.75;;;15.60;99.90;;;;;;5074227;28;20089;-75
2022/05/20 00:36:03;;;;;;;39.97;29.67;;;15.60;99.90;;;;;;5074526;28;20033;-76
2022/05/20 00:38:29;;;;;;;43.65;31.92;;;15.50;99.90;;;;;;5074452;28;20503;-75
2022/05/20 00:40:55;;;;;;;35.83;29.35;;;15.60;99.90;;;;;;5074646;28;20024;-75
2022/05/20 00:43:30;;;;;;;37.22;30.20;;;15.40;99.90;;;;;;5074844;28;20397;-74
2022/05/20 00:45:58;;;;;;;38.65;30.85;;;15.50;99.90;;;;;;5074696;28;20115;-75
2022/05/20 00:48:24;;;;;;;44.42;33.78;;;15.60;99.90;;;;;;5073247;28;20116;-75
2022/05/20 00:50:56;;;;;;;42.08;31.00;;;15.70;99.90;;;;;;5074291;28;20362;-76
2022/05/20 00:53:26;;;;;;;36.88;30.35;;;15.40;99.90;;;;;;5073991;28;20492;-76
2022/05/20 00:55:52;;;;;;;39.85;32.75;;;15.40;99.90;;;;;;5074362;28;20085;-75
2022/05/20 00:58:20;;;;;;;46.92;31.70;;;15.20;99.90;;;;;;5073219;28;20115;-75
2022/05/20 01:00:52;;;;;;;40.38;32.58;;;15.10;99.90;;;;;;5074249;28;20028;-76
2022/05/20 01:03:28;;;;;;;45.95;32.50;;;15.00;99.90;;;;;;5079230;28;20043;-76
2022/05/20 01:05:55;;;;;;;47.22;32.75;;;14.90;99.90;;;;;;5093970;28;20048;-75
2022/05/20 01:08:30;;;;;;;43.22;33.97;;;14.90;99.90;;;;;;5092865;28;20123;-75
2022/05/20 01:10:57;;;;;;;42.78;31.83;;;15.10;99.90;;;;;;5094148;28;20064;-75
2022/05/20 01:13:28;;;;;;;46.60;34.10;;;15.10;99.90;;;;;;5094257;28;20024;-76
2022/05/20 01:15:55;;;;;;;44.08;34.33;;;15.30;99.90;;;;;;5094151;28;20157;-76
2022/05/20 01:18:22;;;;;;;53.15;36.03;;;15.10;99.90;;;;;;5094278;28;20036;-76
2022/05/20 01:20:51;;;;;;;54.08;34.10;;;15.20;99.90;;;;;;5094001;28;20507;-75
2022/05/20 01:23:23;;;;;;;52.83;36.15;;;15.30;99.90;;;;;;5093874;28;20111;-75
2022/05/20 01:25:52;;;;;;;48.17;35.97;;;15.40;99.90;;;;;;5094071;28;20024;-76
2022/05/20 01:28:19;;;;;;;42.65;33.88;;;15.40;99.90;;;;;;5093946;28;20043;-76
2022/05/20 01:31:12;;;;;;;46.88;33.25;;;15.30;99.90;;;;;;5092579;28;20032;-75
2022/05/20 01:33:41;;;;;;;40.40;32.63;;;15.40;99.90;;;;;;5092422;28;20043;-76
2022/05/20 01:36:13;;;;;;;44.70;34.78;;;15.50;99.90;;;;;;5092105;28;20047;-75
2022/05/20 01:38:39;;;;;;;37.97;30.75;;;15.60;99.90;;;;;;5093690;28;20024;-75
2022/05/20 01:41:12;;;;;;;49.17;32.58;;;15.60;99.90;;;;;;5093545;28;20449;-75
2022/05/20 01:44:31;;;;;;;38.38;32.85;;;15.50;99.90;;;;;;5093730;28;20051;-75
2022/05/20 01:47:08;;;;;;;42.05;32.38;;;15.50;99.90;;;;;;5070839;28;20040;-75
2022/05/20 01:49:49;;;;;;;44.10;32.42;;;15.50;99.90;;;;;;5054870;28;20044;-76
2022/05/20 01:52:19;;;;;;;47.30;36.10;;;15.60;99.90;;;;;;5072620;28;20037;-76
2022/05/20 01:55:04;;;;;;;43.63;34.72;;;15.60;99.90;;;;;;5073345;28;20051;-76
2022/05/20 01:57:56;;;;;;;47.13;34.45;;;15.60;99.90;;;;;;5072997;28;20029;-75
2022/05/20 02:00:25;;;;;;;49.70;35.25;;;15.50;99.90;;;;;;5073254;28;20052;-75
2022/05/20 02:02:51;;;;;;;46.78;35.17;;;15.40;99.90;;;;;;5074417;28;20120;-76
2022/05/20 02:05:24;;;;;;;43.33;35.53;;;15.40;99.90;;;;;;5093031;28;20060;-75
2022/05/20 02:07:58;;;;;;;45.85;34.03;;;15.30;99.90;;;;;;5093219;28;20032;-75
2022/05/20 02:10:34;;;;;;;43.50;35.95;;;15.20;99.90;;;;;;5092045;28;20092;-75
2022/05/20 02:13:05;;;;;;;46.72;36.58;;;15.20;99.90;;;;;;5093263;28;20384;-75
2022/05/20 02:15:38;;;;;;;49.33;36.40;;;15.20;99.90;;;;;;5093286;28;20073;-75
2022/05/20 02:18:09;;;;;;;44.78;33.95;;;15.30;99.90;;;;;;5092404;28;20346;-75
2022/05/20 02:20:39;;;;;;;46.05;36.83;;;15.30;99.90;;;;;;5092841;28;20117;-75
2022/05/20 02:23:17;;;;;;;46.95;37.65;;;15.30;99.90;;;;;;5092988;28;20032;-76
2022/05/20 02:25:50;;;;;;;47.33;36.42;;;15.20;99.90;;;;;;5093058;28;20031;-76
2022/05/20 02:28:21;;;;;;;41.22;34.67;;;15.30;99.90;;;;;;5092938;28;20044;-76
2022/05/20 02:30:47;;;;;;;49.65;38.03;;;15.20;99.90;;;;;;5091675;28;20032;-76
2022/05/20 02:33:19;;;;;;;50.47;37.75;;;15.10;99.90;;;;;;5092888;28;20028;-75
2022/05/20 02:35:45;;;;;;;;;;;15.20;99.90;;;;;;5093096;28;20028;-75
2022/05/20 02:38:23;;;;;;;55.50;39.58;;;15.20;99.90;;;;;;5092763;28;20365;-76
2022/05/20 02:40:52;;;;;;;52.88;40.75;;;15.50;99.90;;;;;;5092814;28;20047;-75
2022/05/20 02:43:19;;;;;;;58.95;41.17;;;15.50;99.90;;;;;;5092601;28;20024;-76
2022/05/20 02:45:47;;;;;;;56.47;43.00;;;15.70;99.90;;;;;;5092908;28;20039;-75
2022/05/20 02:48:15;;;;;;;51.22;41.47;;;15.50;99.90;;;;;;5076912;28;20048;-75
2022/05/20 02:50:41;;;;;;;54.80;42.58;;;15.50;99.90;;;;;;5072793;28;20079;-75
2022/05/20 02:53:07;;;;;;;54.75;41.58;;;15.50;99.90;;;;;;5072539;28;20033;-75
2022/05/20 02:55:33;;;;;;;61.55;41.75;;;15.50;99.90;;;;;;5072652;28;20037;-75
2022/05/20 02:57:59;;;;;;;55.65;42.28;;;15.30;99.90;;;;;;5072517;28;20112;-76
2022/05/20 03:05:55;;;;;;;56.90;42.08;;;15.60;99.90;;;;;;5092588;28;20030;-75
2022/05/20 03:08:21;;;;;;;53.70;41.45;;;15.40;99.90;;;;;;5092583;28;20116;-75
2022/05/20 03:10:47;;;;;;;60.35;41.00;;;15.20;99.90;;;;;;5092726;28;20528;-75
2022/05/20 03:13:14;;;;;;;51.13;40.30;;;15.10;99.90;;;;;;5092519;28;20070;-75
2022/05/20 03:15:41;;;;;;;51.50;36.97;;;14.90;99.90;;;;;;5092597;28;20476;-75
2022/05/20 03:18:11;;;;;;;47.83;37.67;;;15.00;99.90;;;;;;5092092;28;20050;-76
2022/05/20 03:20:38;;;;;;;48.92;39.85;;;15.10;99.90;;;;;;5092788;28;20059;-76
2022/05/20 03:23:05;;;;;;;52.42;39.53;;;15.30;99.90;;;;;;5091312;28;20028;-75
2022/05/20 03:25:31;;;;;;;50.10;37.47;;;15.30;99.90;;;;;;5092629;28;20044;-76
2022/05/20 03:27:58;;;;;;;49.70;37.45;;;15.30;99.90;;;;;;5091002;28;20047;-76
2022/05/20 03:30:23;;;;;;;44.72;35.83;;;15.30;99.90;;;;;;5094775;28;20059;-75
2022/05/20 03:32:50;;;;;;;49.00;37.17;;;15.20;99.90;;;;;;5095953;28;20064;-75
2022/05/20 03:35:15;;;;;;;50.85;38.45;;;15.30;99.90;;;;;;5096083;28;20032;-75
2022/05/20 03:37:41;;;;;;;52.13;38.97;;;15.40;99.90;;;;;;5095936;28;20032;-75
2022/05/20 03:40:08;;;;;;;50.13;37.00;;;15.40;99.90;;;;;;5096055;28;20024;-76
2022/05/20 03:42:34;;;;;;;50.42;37.88;;;14.90;99.90;;;;;;5096124;28;20043;-76
2022/05/20 03:45:00;;;;;;;53.70;37.00;;;14.70;99.90;;;;;;5095943;28;20024;-76
2022/05/20 03:47:26;;;;;;;52.00;37.97;;;14.90;99.90;;;;;;5086229;28;20041;-76
2022/05/20 03:49:52;;;;;;;49.63;39.08;;;14.90;99.90;;;;;;5075344;28;20107;-76
2022/05/20 03:52:18;;;;;;;46.88;36.97;;;14.80;99.90;;;;;;5075687;28;20039;-76
2022/05/20 03:54:44;;;;;;;46.30;36.30;;;14.90;99.90;;;;;;5075227;28;20040;-75
2022/05/20 03:57:10;;;;;;;47.83;37.05;;;14.80;99.90;;;;;;5075443;28;20043;-75
2022/05/20 03:59:37;;;;;;;51.08;38.33;;;14.70;99.90;;;;;;5074063;28;20369;-74
2022/05/20 04:02:08;;;;;;;49.28;38.67;;;14.70;99.90;;;;;;5074235;28;20515;-76
2022/05/20 04:04:43;;;;;;;52.65;39.58;;;14.70;99.90;;;;;;5087625;28;20062;-75
2022/05/20 04:07:16;;;;;;;54.13;40.25;;;14.80;99.90;;;;;;5075432;28;20040;-76
2022/05/20 04:09:43;;;;;;;47.60;38.88;;;14.90;99.90;;;;;;5074024;28;20028;-75
2022/05/20 04:12:16;;;;;;;55.50;41.05;;;15.00;99.90;;;;;;5074005;28;20033;-76
2022/05/20 04:14:42;;;;;;;54.53;39.67;;;15.10;99.90;;;;;;5075163;28;20036;-76
2022/05/20 04:17:08;;;;;;;50.85;37.60;;;15.10;99.90;;;;;;5074883;28;20032;-76
2022/05/20 04:19:34;;;;;;;51.08;39.47;;;15.20;99.90;;;;;;5090551;28;20086;-75
2022/05/20 04:22:05;;;;;;;51.85;39.72;;;15.20;99.90;;;;;;5075065;28;20029;-75
2022/05/20 04:24:32;;;;;;;54.42;41.03;;;15.10;99.90;;;;;;5075050;28;20480;-75
2022/05/20 04:26:57;;;;;;;51.92;38.92;;;15.10;99.90;;;;;;5074869;28;20116;-75
2022/05/20 04:29:23;;;;;;;57.00;40.17;;;15.20;99.90;;;;;;5073483;28;20111;-76
2022/05/20 04:31:50;;;;;;;54.50;41.85;;;15.30;99.90;;;;;;5074616;28;20064;-75
2022/05/20 04:34:17;;;;;;;51.13;42.10;;;15.10;99.90;;;;;;5074805;28;20093;-76
2022/05/20 04:36:43;;;;;;;60.72;43.33;;;14.80;99.90;;;;;;5090269;28;20396;-75
2022/05/20 04:39:09;;;;;;;55.05;42.28;;;14.70;99.90;;;;;;5073504;28;20044;-74
2022/05/20 04:47:09;;;;;;;54.30;41.65;;;15.20;99.90;;;;;;5080450;28;20032;-75
2022/05/20 04:49:38;;;;;;;52.25;40.40;;;15.30;99.90;;;;;;5094865;28;20473;-75
2022/05/20 04:52:04;;;;;;;57.03;41.17;;;15.40;99.90;;;;;;5094631;28;20051;-76
2022/05/20 04:57:32;;;;;;;57.40;41.78;;;15.50;99.90;;;;;;5094654;28;20036;-76
2022/05/20 05:00:08;;;;;;;56.95;41.92;;;15.40;99.90;;;;;;5093018;28;20051;-75
2022/05/20 05:02:35;;;;;;;57.20;40.78;;;15.60;99.90;;;;;;5094539;28;20040;-75
2022/05/20 05:05:01;;;;;;;61.50;44.40;;;15.60;99.90;;;;;;5094158;28;20024;-76
2022/05/20 05:07:27;;;;;;;65.47;46.22;;;15.70;99.90;;;;;;5094530;28;20047;-75
2022/05/20 05:09:53;;;;;;;59.10;44.97;;;15.70;99.90;;;;;;5094166;28;20028;-76
2022/05/20 05:12:20;;;;;;;65.30;47.58;;;15.80;99.90;;;;;;5094178;28;20107;-75
2022/05/20 05:14:48;;;;;;;72.55;48.97;;;15.80;99.90;;;;;;5093842;28;20122;-75
2022/05/20 05:17:17;;;;;;;62.85;48.10;;;15.90;99.90;;;;;;5094230;28;20369;-75
2022/05/20 05:19:47;;;;;;;64.53;48.67;;;15.90;99.90;;;;;;5092898;28;20043;-75
2022/05/20 05:22:12;;;;;;;71.15;48.53;;;16.00;99.90;;;;;;5094131;28;20063;-75
2022/05/20 05:24:39;;;;;;;68.60;49.47;;;16.10;99.90;;;;;;5094209;28;20374;-76
2022/05/20 05:27:05;;;;;;;73.18;49.38;;;16.20;99.90;;;;;;5093885;28;20024;-75
2022/05/20 05:29:32;;;;;;;73.32;52.33;;;16.30;99.90;;;;;;5092413;28;20043;-75
2022/05/20 05:31:58;;;;;;;72.95;51.05;;;16.40;99.90;;;;;;5093708;28;20032;-75
2022/05/20 05:34:24;;;;;;;72.57;55.15;;;16.70;99.90;;;;;;5093832;28;20085;-76
2022/05/20 05:36:50;;;;;;;80.95;56.05;;;16.90;99.90;;;;;;5092519;28;20036;-76
2022/05/20 05:39:16;;;;;;;75.68;57.78;;;17.10;99.90;;;;;;5092691;28;20054;-76
2022/05/20 05:41:42;;;;;;;80.78;55.78;;;16.90;99.90;;;;;;5093650;28;20032;-76
2022/05/20 05:44:07;;;;;;;79.35;56.45;;;16.90;99.90;;;;;;5092176;28;20063;-76
2022/05/20 05:46:33;;;;;;;81.28;56.03;;;16.90;99.90;;;;;;5091857;28;20046;-75
2022/05/20 05:48:59;;;;;;;80.95;53.65;;;17.10;99.90;;;;;;5074051;28;20031;-75
2022/05/20 05:51:26;;;;;;;79.70;54.83;;;17.10;99.90;;;;;;5085560;28;20123;-75
2022/05/20 05:53:52;;;;;;;71.78;50.55;;;17.20;99.90;;;;;;5102114;28;20479;-75
2022/05/20 05:56:18;;;;;;;79.13;53.20;;;17.20;99.90;;;;;;5087879;28;20036;-76
2022/05/20 05:58:44;;;;;;;78.43;50.67;;;17.30;99.90;;;;;;5077566;28;20472;-76
2022/05/20 06:01:12;;;;;;;75.32;50.42;;;17.30;99.90;;;;;;5107745;28;20031;-75
2022/05/20 06:03:38;;;;;;;65.32;48.25;;;17.40;99.90;;;;;;5100555;28;20058;-75
2022/05/20 06:06:03;;;;;;;62.85;45.00;;;17.70;99.90;;;;;;5098769;28;20472;-76
2022/05/20 06:08:29;;;;;;;64.85;46.38;;;17.60;99.90;;;;;;5108817;28;20039;-76
2022/05/20 06:10:55;;;;;;;68.72;46.83;;;17.70;99.90;;;;;;5094451;28;20031;-76
2022/05/20 06:13:25;;;;;;;60.92;45.67;;;17.70;99.90;;;;;;5082486;28;20060;-76
2022/05/20 06:15:55;;;;;;;69.75;46.85;;;17.80;99.90;;;;;;5072200;28;20032;-75
2022/05/20 06:18:21;;;;;;;72.85;47.65;;;17.80;99.90;;;;;;5073094;28;20033;-76
2022/05/20 06:20:47;;;;;;;65.43;48.47;;;17.70;99.90;;;;;;5106265;28;20027;-75
2022/05/20 06:23:13;;;;;;;61.15;47.90;;;17.90;99.90;;;;;;5097776;28;20051;-75
2022/05/20 06:25:41;;;;;;;58.40;44.75;;;18.10;99.90;;;;;;5103327;28;20486;-76
2022/05/20 06:28:10;;;;;;;62.33;45.85;;;18.30;99.90;;;;;;5104974;28;20028;-76
2022/05/20 06:30:37;;;;;;;57.25;43.85;;;18.70;99.90;;;;;;5095841;28;20028;-75
2022/05/20 06:33:03;;;;;;;56.25;38.50;;;18.70;99.90;;;;;;5092128;28;20127;-75
2022/05/20 06:40:59;;;;;;;56.60;41.20;;;19.10;99.90;;;;;;5084975;28;20177;-79
2022/05/20 06:43:26;;;;;;;51.20;39.55;;;19.00;99.90;;;;;;5081733;28;20550;-76
2022/05/20 06:45:58;;;;;;;49.42;37.08;;;19.10;99.90;;;;;;5080222;28;20564;-76
2022/05/20 06:48:35;;;;;;;54.03;37.38;;;19.20;99.90;;;;;;5079584;28;20049;-78
2022/05/20 06:51:04;;;;;;;54.85;40.33;;;19.30;99.90;;;;;;5069171;28;20120;-78
2022/05/20 06:53:30;;;;;;;52.42;38.78;;;19.60;99.90;;;;;;5073228;28;20605;-78
2022/05/20 06:55:57;;;;;;;48.13;34.63;;;19.80;99.90;;;;;;5070906;28;20082;-77
2022/05/20 06:58:23;;;;;;;53.85;35.65;;;19.40;99.90;;;;;;5080136;28;20041;-78
2022/05/20 07:00:48;;;;;;;42.63;32.15;;;19.50;99.90;;;;;;5074010;28;20021;-77
2022/05/20 07:03:14;;;;;;;51.35;31.98;;;19.50;99.90;;;;;;5081638;28;20457;-76
2022/05/20 07:05:40;;;;;;;41.28;31.77;;;19.60;99.90;;;;;;5077706;28;20025;-77
2022/05/20 07:08:06;;;;;;;45.00;32.17;;;19.90;99.90;;;;;;5077708;28;20028;-78
2022/05/20 07:10:32;;;;;;;47.22;33.03;;;20.20;99.90;;;;;;5078613;28;20465;-78
2022/05/20 07:12:57;;;;;;;37.72;30.10;;;20.60;99.90;;;;;;5078640;28;20043;-78
2022/05/20 07:15:23;;;;;;;45.30;33.08;;;20.50;99.90;;;;;;5082552;28;20113;-77
2022/05/20 07:17:49;;;;;;;40.80;30.38;;;20.80;99.90;;;;;;5079750;28;20032;-77
2022/05/20 07:20:15;;;;;;;41.30;29.73;;;20.60;99.90;;;;;;5077543;28;20028;-77
2022/05/20 07:22:41;;;;;;;42.60;29.80;;;20.10;99.90;;;;;;5094185;28;20020;-77
2022/05/20 07:25:07;;;;;;;46.50;31.45;;;20.10;99.90;;;;;;5081658;28;20504;-77
2022/05/20 07:27:33;;;;;;;42.78;31.05;;;20.50;99.90;;;;;;5085125;28;20024;-77
2022/05/20 07:29:58;;;;;;;43.92;30.55;;;21.00;99.90;;;;;;5077767;28;20107;-77
2022/05/20 07:32:24;;;;;;;46.70;29.45;;;21.00;99.90;;;;;;5100530;28;20035;-77
2022/05/20 07:34:50;;;;;;;41.47;29.70;;;20.70;99.90;;;;;;5107043;28;20051;-77
2022/05/20 07:37:16;;;;;;;40.50;31.35;;;20.60;99.90;;;;;;5111577;28;20032;-77
2022/05/20 07:39:42;;;;;;;42.42;32.95;;;20.40;99.90;;;;;;5109763;28;20103;-76
2022/05/20 07:42:08;;;;;;;38.67;27.90;;;20.70;99.90;;;;;;5104805;28;20027;-78
2022/05/20 07:44:36;;;;;;;40.60;27.00;;;20.20;99.90;;;;;;5102884;28;20086;-77
2022/05/20 07:47:03;;;;;;;35.33;23.33;;;20.30;99.90;;;;;;5088481;28;20119;-76
2022/05/20 07:49:29;;;;;;;32.03;22.05;;;20.50;99.90;;;;;;5112060;28;20354;-76
2022/05/20 07:51:57;;;;;;;32.83;22.52;;;20.60;99.90;;;;;;5101742;28;20030;-76
2022/05/20 07:54:26;;;;;;;28.38;21.50;;;20.50;99.90;;;;;;5103745;28;20396;-77
2022/05/20 07:56:57;;;;;;;38.42;24.98;;;20.30;99.90;;;;;;5103725;28;20023;-77
2022/05/20 07:59:37;;;;;;;36.80;26.50;;;20.60;99.90;;;;;;5111980;28;20046;-76
2022/05/20 08:02:03;;;;;;;36.53;27.42;;;20.80;99.90;;;;;;5094178;28;20039;-76
2022/05/20 08:04:53;;;;;;;30.90;24.77;;;21.40;99.90;;;;;;5093136;28;20119;-77
2022/05/20 08:07:41;;;;;;;33.03;23.50;;;21.70;99.90;;;;;;5094450;28;20043;-78
2022/05/20 08:10:21;;;;;;;33.50;23.35;;;21.50;99.90;;;;;;5093285;28;20043;-77
2022/05/20 08:12:47;;;;;;;32.65;21.73;;;21.40;99.90;;;;;;5082159;28;20032;-77
2022/05/20 08:15:14;;;;;;;30.00;19.80;;;21.90;99.90;;;;;;5074966;28;20038;-77
2022/05/20 08:17:41;;;;;;;30.55;22.27;;;22.20;99.90;;;;;;5074099;28;20035;-77
2022/05/20 08:20:16;;;;;;;26.95;21.00;;;22.10;99.90;;;;;;5075068;28;20071;-77
2022/05/20 08:22:42;;;;;;;26.45;19.55;;;22.30;99.90;;;;;;5074906;28;20039;-78
2022/05/20 08:25:08;;;;;;;27.15;20.00;;;22.20;99.90;;;;;;5074809;28;20029;-78
2022/05/20 08:27:34;;;;;;;27.35;20.10;;;21.90;99.90;;;;;;5074872;28;20473;-78
2022/05/20 08:30:13;;;;;;;29.17;20.58;;;21.90;99.90;;;;;;5074817;28;20028;-78
2022/05/20 08:32:39;;;;;;;27.25;21.73;;;22.10;99.90;;;;;;5075073;28;20032;-78
2022/05/20 08:35:05;;;;;;;29.17;18.52;;;21.90;99.90;;;;;;5074418;28;20041;-78
2022/05/20 08:37:33;;;;;;;31.63;21.33;;;22.10;99.90;;;;;;5072850;28;20127;-78
2022/05/20 08:39:59;;;;;;;34.80;22.30;;;22.40;99.90;;;;;;5074630;28;20466;-76
2022/05/20 08:42:29;;;;;;;27.08;20.35;;;22.20;99.90;;;;;;5073535;28;20040;-76
2022/05/20 08:44:56;;;;;;;30.10;21.63;;;22.10;99.90;;;;;;5075397;28;20477;-76
2022/05/20 08:47:44;;;;;;;29.67;20.90;;;22.30;99.90;;;;;;5074850;28;20051;-77
2022/05/20 08:50:18;;;;;;;25.60;20.00;;;22.80;99.90;;;;;;5093732;28;20124;-79
2022/05/20 08:52:44;;;;;;;34.13;20.90;;;22.70;99.90;;;;;;5094283;28;20118;-76
2022/05/20 08:55:11;;;;;;;25.75;19.42;;;22.90;99.90;;;;;;5090911;28;20089;-77
2022/05/20 08:57:39;;;;;;;28.77;19.73;;;23.20;99.90;;;;;;5074318;28;20030;-75
2022/05/20 09:00:12;;;;;;;27.55;20.30;;;23.70;99.90;;;;;;5074251;28;20473;-77
2022/05/20 09:02:38;;;;;;;27.65;20.25;;;24.00;99.90;;;;;;5074726;28;20025;-76
2022/05/20 09:05:25;;;;;;;27.45;19.92;;;23.50;99.90;;;;;;5094246;28;20569;-77
2022/05/20 09:07:54;;;;;;;30.42;22.48;;;23.00;99.90;;;;;;5094414;28;20149;-76
2022/05/20 09:10:41;;;;;;;34.90;20.50;;;23.30;99.90;;;;;;5092945;28;20114;-76
2022/05/20 09:13:13;;;;;;;26.45;21.45;;;23.20;99.90;;;;;;5076229;28;20032;-77
2022/05/20 09:15:49;;;;;;;32.75;21.92;;;23.30;99.90;;;;;;5094202;28;20468;-77
2022/05/20 09:18:39;;;;;;;30.35;22.40;;;23.40;99.90;;;;;;5094168;28;20114;-77
2022/05/20 09:21:07;;;;;;;32.35;22.05;;;23.00;99.90;;;;;;5093776;28;20020;-75
2022/05/20 09:23:48;;;;;;;36.92;20.83;;;22.40;99.90;;;;;;5094237;28;20058;-76
2022/05/20 09:26:16;;;;;;;26.30;21.38;;;21.90;99.90;;;;;;5092532;28;20140;-76
2022/05/20 09:28:50;;;;;;;30.73;19.60;;;21.90;99.90;;;;;;5092618;28;20461;-77
2022/05/20 09:31:16;;;;;;;25.75;19.35;;;21.60;99.90;;;;;;5084764;28;20037;-77
2022/05/20 09:34:03;;;;;;;24.23;17.00;;;21.80;99.90;;;;;;5072993;28;20059;-78
2022/05/20 09:36:44;;;;;;;23.55;17.40;;;22.00;99.90;;;;;;5092640;28;20463;-77
2022/05/20 09:39:15;;;;;;;23.02;17.13;;;22.60;99.90;;;;;;5093182;28;20531;-78
2022/05/20 09:41:46;;;;;;;23.40;14.80;;;22.80;99.90;;;;;;5091960;28;20522;-80
2022/05/20 09:44:13;;;;;;;23.52;16.23;;;22.50;99.90;;;;;;5092927;28;20032;-78
2022/05/20 09:46:51;;;;;;;25.73;15.80;;;22.60;99.90;;;;;;5078636;28;20035;-79
2022/05/20 09:49:20;;;;;;;21.17;14.13;;;23.00;99.90;;;;;;5072453;28;20036;-74
2022/05/20 09:51:51;;;;;;;22.45;13.70;;;23.10;99.90;;;;;;5073167;28;20036;-78
2022/05/20 09:54:41;;;;;;;20.95;13.27;;;23.10;99.90;;;;;;5090663;28;20036;-79
2022/05/20 09:57:14;;;;;;;21.45;13.80;;;23.30;99.90;;;;;;5086213;28;20123;-79
2022/05/20 09:59:57;;;;;;;18.08;13.93;;;22.90;99.90;;;;;;5074845;28;20034;-78
2022/05/20 10:02:41;;;;;;;18.90;13.73;;;22.80;99.90;;;;;;5106979;28;20067;-77
2022/05/20 10:05:28;;;;;;;16.13;10.77;;;23.20;99.90;;;;;;5084737;28;20434;-78
2022/05/20 10:08:10;;;;;;;20.90;13.65;;;23.10;99.90;;;;;;5096168;28;20125;-78
2022/05/20 10:10:45;;;;;;;;;;;23.10;99.90;;;;;;5110071;28;20501;-79
2022/05/20 10:13:33;;;;;;;21.73;13.60;;;22.90;99.90;;;;;;5090948;28;20010;-79
2022/05/20 10:16:21;;;;;;;18.58;13.13;;;22.80;99.90;;;;;;5099112;28;20115;-79
2022/05/20 10:19:11;;;;;;;21.27;12.50;;;22.60;99.90;;;;;;5080467;28;20059;-79
2022/05/20 10:22:02;;;;;;;21.50;14.43;;;22.50;99.90;;;;;;5075804;28;20052;-80
2022/05/20 10:24:54;;;;;;;18.70;12.57;;;22.10;99.90;;;;;;5073793;28;20554;-79
2022/05/20 10:27:29;;;;;;;23.23;15.13;;;22.30;99.90;;;;;;5089154;28;20373;-79
2022/05/20 10:33:02;;;;;;;17.55;13.18;;;22.30;99.90;;;;;;5087433;28;20063;-79
2022/05/20 10:35:40;;;;;;;20.48;13.75;;;22.20;99.90;;;;;;5108771;28;20032;-79
2022/05/20 10:39:04;;;;;;;22.63;14.93;;;22.20;99.90;;;;;;5099166;28;20035;-79
2022/05/20 10:41:54;;;;;;;21.98;14.10;;;22.00;99.90;;;;;;5068700;28;20048;-77
2022/05/20 10:50:32;;;;;;;20.60;14.32;;;21.50;99.90;;;;;;5101654;28;20113;-77
2022/05/20 10:53:04;;;;;;;19.70;15.07;;;21.40;99.90;;;;;;5105216;28;20532;-77
2022/05/20 10:56:02;;;;;;;17.83;13.70;;;21.60;99.90;;;;;;5095245;28;20515;-77
2022/05/20 10:58:56;;;;;;;24.92;14.05;;;21.60;99.90;;;;;;5096582;28;20017;-77
2022/05/20 11:01:40;;;;;;;23.65;13.48;;;21.40;99.90;;;;;;5094368;28;20071;-77
2022/05/20 11:04:32;;;;;;;22.42;13.98;;;21.50;99.90;;;;;;5106981;28;20047;-77
2022/05/20 11:07:19;;;;;;;22.90;14.30;;;21.40;99.90;;;;;;5101653;28;20047;-77
2022/05/20 11:09:58;;;;;;;21.50;15.02;;;21.40;99.90;;;;;;5112981;28;20061;-76
2022/05/20 11:12:29;;;;;;;24.08;15.88;;;21.40;99.90;;;;;;5112547;28;20415;-76
2022/05/20 11:15:09;;;;;;;26.60;16.52;;;21.20;99.90;;;;;;5112756;28;20027;-75
2022/05/20 11:17:46;;;;;;;24.73;17.83;;;21.30;99.90;;;;;;5112419;28;20035;-78
2022/05/20 11:20:14;;;;;;;39.78;21.60;;;20.70;99.90;;;;;;5112978;28;20028;-76
2022/05/20 11:23:17;;;;;;;32.45;21.17;;;20.20;99.90;;;;;;5112735;28;20031;-77
2022/05/20 11:26:03;;;;;;;33.95;22.00;;;19.80;99.90;;;;;;5113235;28;20490;-77
2022/05/20 11:28:39;;;;;;;32.55;21.80;;;19.30;99.90;;;;;;5112741;28;20039;-75
2022/05/20 11:31:23;;;;;;;33.03;24.60;;;19.40;99.90;;;;;;5112769;28;20042;-77
2022/05/20 11:34:13;;;;;;;37.28;25.30;;;19.50;99.90;;;;;;5112506;28;20139;-77
2022/05/20 11:36:57;;;;;;;38.35;26.15;;;19.80;99.90;;;;;;5112481;28;20028;-77
2022/05/20 11:39:47;;;;;;;35.17;25.48;;;19.80;99.90;;;;;;5112668;28;20044;-77
2022/05/20 11:42:19;;;;;;;38.83;26.33;;;20.20;99.90;;;;;;5111565;28;20096;-77
2022/05/20 11:44:50;;;;;;;;;;;20.70;99.90;;;;;;5112911;28;20084;-77
2022/05/20 11:47:44;;;;;;;42.40;27.23;;;21.00;99.90;;;;;;5104250;28;19912;-77
2022/05/20 11:50:24;;;;;;;38.55;27.02;;;20.90;99.90;;;;;;5092468;28;20036;-77
2022/05/20 11:52:53;;;;;;;36.60;26.00;;;21.10;99.90;;;;;;5094629;28;20070;-77
2022/05/20 11:55:29;;;;;;;35.20;27.17;;;21.20;99.90;;;;;;5095555;28;20036;-76
2022/05/20 11:58:05;;;;;;;36.80;27.10;;;21.40;99.90;;;;;;5096319;28;20544;-77
2022/05/20 12:00:34;;;;;;;40.03;25.63;;;21.40;99.90;;;;;;5095214;28;20123;-77
2022/05/20 12:03:12;;;;;;;43.35;28.30;;;21.20;99.90;;;;;;5095419;28;20119;-77
2022/05/20 12:05:43;;;;;;;42.63;29.50;;;21.20;99.90;;;;;;5095269;28;20111;-77
2022/05/20 12:08:39;;;;;;;38.22;30.27;;;20.80;99.90;;;;;;5089818;28;20040;-76
2022/05/20 12:11:31;;;;;;;46.33;30.92;;;20.50;99.90;;;;;;5075119;28;20028;-77
2022/05/20 12:13:59;;;;;;;48.90;31.98;;;20.50;99.90;;;;;;5074838;28;20044;-76
2022/05/20 12:16:25;;;;;;;49.00;33.47;;;20.30;99.90;;;;;;5073887;28;20036;-76
2022/05/20 12:24:44;;;;;;;48.70;35.05;;;20.10;99.90;;;;;;5074751;28;20485;-76
2022/05/20 12:27:24;;;;;;;40.33;28.65;;;20.70;99.90;;;;;;5057083;28;20097;-77
2022/05/20 12:30:06;;;;;;;37.15;27.60;;;21.30;99.90;;;;;;5073391;28;20037;-76
2022/05/20 12:32:34;;;;;;;45.83;28.00;;;21.80;99.90;;;;;;5073489;28;20036;-74
2022/05/20 12:35:20;;;;;;;39.15;29.58;;;21.90;99.90;;;;;;5074435;28;20040;-76
2022/05/20 12:37:46;;;;;;;48.08;33.85;;;22.10;99.90;;;;;;5073403;28;20032;-76
2022/05/20 12:40:27;;;;;;;47.30;36.47;;;22.00;99.90;;;;;;5073337;28;20064;-76
2022/05/20 12:42:56;;;;;;;44.22;33.10;;;22.30;99.90;;;;;;5074754;28;20052;-76
2022/05/20 12:45:23;;;;;;;47.83;31.67;;;21.60;99.90;;;;;;5074366;28;20501;-75
2022/05/20 12:47:49;;;;;;;48.78;35.47;;;20.40;99.90;;;;;;5086815;28;20093;-77
2022/05/20 12:50:15;;;;;;;46.28;32.38;;;20.20;99.90;;;;;;5094822;28;20472;-77
2022/05/20 12:52:48;;;;;;;38.55;29.65;;;20.00;99.90;;;;;;5094809;28;20528;-77
2022/05/20 12:55:28;;;;;;;46.05;31.52;;;19.80;99.90;;;;;;5094540;28;20032;-77
2022/05/20 12:57:57;;;;;;;36.53;30.77;;;19.80;99.90;;;;;;5093201;28;20389;-77
2022/05/20 13:00:31;;;;;;;33.78;28.98;;;19.60;99.90;;;;;;5093286;28;20063;-77
2022/05/20 13:03:35;;;;;;;37.08;26.73;;;19.20;99.90;;;;;;5092476;28;20059;-78
2022/05/20 13:06:25;;;;;;;41.17;30.65;;;18.90;99.90;;;;;;5082007;28;20040;-76
2022/05/20 13:08:57;;;;;;;45.13;35.05;;;19.20;99.90;;;;;;5093147;28;20040;-77
2022/05/20 13:11:24;;;;;;;46.83;34.78;;;19.10;99.90;;;;;;5094281;28;20058;-77
2022/05/20 13:13:52;;;;;;;49.65;33.67;;;19.00;99.90;;;;;;5094054;28;20050;-77
2022/05/20 13:16:24;;;;;;;48.75;36.50;;;18.90;99.90;;;;;;5094353;28;20024;-78
2022/05/20 13:19:12;;;;;;;53.33;38.55;;;19.20;99.90;;;;;;5094343;28;20535;-77
2022/05/20 13:21:47;;;;;;;49.10;38.03;;;19.30;99.90;;;;;;5094419;28;20052;-77
2022/05/20 13:24:16;;;;;;;51.95;38.58;;;19.40;99.90;;;;;;5094234;28;20059;-77
2022/05/20 13:26:42;;;;;;;47.25;35.67;;;19.40;99.90;;;;;;5092657;28;20502;-76